LYTV/TIV METAR and TAF weather

Enter ICAO airport designator
Station Type Date Time Source
LYTV METAR 2022/11/30 16:30 UTC NOAA

LYTV 301630Z AUTO 02005KT 330V080 9999 OVC067/// 16/04 Q1011


Station Type Date Time Source
LYTV Decoded METAR 2022/11/30 16:30 UTC NOAA

Tivat, Serbia and Montenegro (LYTV) 42-24N 018-44E 5M
Nov 30, 2022 - 11:30 AM EST / 2022.11.30 1630 UTC
Wind: from the NNE (020 degrees) at 6 MPH (5 KT) (direction variable):0
Visibility: greater than 7 mile(s):0
Sky conditions: overcast
Temperature: 60 F (16 C)
Dew Point: 39 F (4 C)
Relative Humidity: 44%
Pressure (altimeter): 29.85 in. Hg (1011 hPa)
ob: LYTV 301630Z AUTO 02005KT 330V080 9999 OVC067/// 16/04 Q1011
cycle: 16

Station Type Date Time Source
LYTV TAF 2022/11/30 11:21 UTC NOAA

TAF
AMD LYTV 301015Z 3011/0106 02008KT 9999 SCT060 TX14/3013Z TN08/0105Z
TEMPO 3011/0106 02012G25KT

Example: see airport list